Time;durP1;ratioP1;P1;durP2;ratioP2;P2;SDS_P1;SDS_P2;PMS_P1;PMS_P2;Temp;Humidity;BMP_temperature;BMP_pressure;BME280_temperature;BME280_humidity;BME280_pressure;Samples;Min_cycle;Max_cycle;Signal;HPM_P1;HPM_P2
2022/08/25 00:02:13;;;;;;;0.00;0.00;;;20.60;99.90;;;;;;5112634;28;20122;-80
2022/08/25 00:04:39;;;;;;;0.03;0.00;;;20.50;99.90;;;;;;5113504;28;20039;-80
2022/08/25 00:07:05;;;;;;;0.00;0.00;;;20.60;99.90;;;;;;5095537;28;20484;-80
2022/08/25 00:09:33;;;;;;;0.00;0.00;;;20.40;99.90;;;;;;5112954;28;20506;-80
2022/08/25 00:12:00;;;;;;;0.00;0.00;;;20.50;99.90;;;;;;5096165;28;20048;-80
2022/08/25 00:14:33;;;;;;;0.00;0.00;;;20.40;99.90;;;;;;5096117;28;20090;-80
2022/08/25 00:16:59;;;;;;;0.00;0.00;;;20.40;99.90;;;;;;5115426;28;20043;-80
2022/08/25 00:19:28;;;;;;;0.20;0.15;;;20.30;99.90;;;;;;5118134;28;20088;-80
2022/08/25 00:21:55;;;;;;;0.00;0.00;;;20.30;99.90;;;;;;5100229;28;20373;-79
2022/08/25 00:24:21;;;;;;;0.05;0.00;;;20.30;99.90;;;;;;5100370;28;20051;-79
2022/08/25 00:26:51;;;;;;;0.00;0.00;;;20.30;99.90;;;;;;5100152;28;20043;-79
2022/08/25 00:29:17;;;;;;;0.00;0.00;;;20.20;99.90;;;;;;5117347;28;20168;-79
2022/08/25 00:31:43;;;;;;;0.00;0.00;;;20.20;99.90;;;;;;5100930;28;20104;-79
2022/08/25 00:34:13;;;;;;;0.00;0.00;;;20.20;99.90;;;;;;5117643;28;20039;-79
2022/08/25 00:36:39;;;;;;;0.00;0.00;;;20.20;99.90;;;;;;5100255;28;20055;-79
2022/08/25 00:39:07;;;;;;;0.00;0.00;;;20.20;99.90;;;;;;5117158;28;20122;-79
2022/08/25 00:41:34;;;;;;;0.15;0.15;;;20.10;99.90;;;;;;5117708;28;20391;-79
2022/08/25 00:44:04;;;;;;;0.00;0.00;;;20.10;99.90;;;;;;5099934;28;20044;-80
2022/08/25 00:46:34;;;;;;;0.10;0.10;;;20.10;99.90;;;;;;5116679;28;20040;-81
2022/08/25 00:49:04;;;;;;;0.05;0.05;;;20.00;99.90;;;;;;5116846;28;20092;-81
2022/08/25 00:51:33;;;;;;;0.00;0.00;;;20.00;99.90;;;;;;5117269;28;20054;-81
2022/08/25 00:54:00;;;;;;;0.00;0.00;;;19.90;99.90;;;;;;5099701;28;20138;-81
2022/08/25 00:56:27;;;;;;;0.00;0.00;;;19.90;99.90;;;;;;5099034;28;20487;-80
2022/08/25 00:58:53;;;;;;;0.00;0.00;;;19.90;99.90;;;;;;5100096;28;20048;-81
2022/08/25 01:01:19;;;;;;;0.00;0.00;;;19.80;99.90;;;;;;5100256;28;20491;-81
2022/08/25 01:03:45;;;;;;;0.00;0.00;;;19.80;99.90;;;;;;5116905;28;20523;-81
2022/08/25 01:06:11;;;;;;;0.00;0.00;;;19.80;99.90;;;;;;5116842;28;20105;-81
2022/08/25 01:08:36;;;;;;;0.10;0.00;;;19.70;99.90;;;;;;5099812;28;20087;-81
2022/08/25 01:11:07;;;;;;;0.00;0.00;;;19.70;99.90;;;;;;5116796;28;20133;-81
2022/08/25 01:13:47;;;;;;;0.00;0.00;;;19.70;99.90;;;;;;5099518;28;20075;-80
2022/08/25 01:16:15;;;;;;;0.10;0.00;;;19.70;99.90;;;;;;5117291;28;20074;-80
2022/08/25 01:18:48;;;;;;;0.00;0.00;;;19.70;99.90;;;;;;5117660;28;20047;-81
2022/08/25 01:21:16;;;;;;;0.22;0.15;;;19.60;99.90;;;;;;5099608;28;20051;-80
2022/08/25 01:23:42;;;;;;;0.22;0.20;;;19.60;99.90;;;;;;5116233;28;20502;-81
2022/08/25 01:26:17;;;;;;;0.00;0.00;;;19.70;99.90;;;;;;5116633;28;20077;-81
2022/08/25 01:29:19;;;;;;;0.00;0.00;;;19.60;99.90;;;;;;5098393;28;20121;-81
2022/08/25 01:31:30;;;;;;;0.00;0.00;;;19.50;99.90;;;;;;5116168;28;20142;-81
2022/08/25 01:33:57;;;;;;;0.00;0.00;;;19.50;99.90;;;;;;5116257;28;20051;-81
2022/08/25 01:36:25;;;;;;;0.00;0.00;;;19.50;99.90;;;;;;5116201;28;20546;-81
2022/08/25 01:38:51;;;;;;;0.00;0.00;;;19.50;99.90;;;;;;5099538;28;20143;-80
2022/08/25 01:41:44;;;;;;;0.00;0.00;;;19.40;99.90;;;;;;5098673;28;20051;-80
2022/08/25 01:44:10;;;;;;;0.00;0.00;;;19.40;99.90;;;;;;5021566;28;20405;-80
2022/08/25 01:46:36;;;;;;;0.30;0.30;;;19.40;99.90;;;;;;5020519;28;20049;-80
2022/08/25 01:49:03;;;;;;;0.00;0.00;;;19.40;99.90;;;;;;5034682;28;20045;-81
2022/08/25 01:51:36;;;;;;;0.00;0.00;;;19.40;99.90;;;;;;5036582;28;20083;-81
2022/08/25 01:54:02;;;;;;;0.00;0.00;;;19.30;99.90;;;;;;5021298;28;20045;-81
2022/08/25 01:56:28;;;;;;;0.00;0.00;;;19.30;99.90;;;;;;5037585;28;20087;-81
2022/08/25 01:58:54;;;;;;;0.00;0.00;;;19.30;99.90;;;;;;5037494;28;20392;-80
2022/08/25 02:01:22;;;;;;;0.00;0.00;;;19.20;99.90;;;;;;5038177;28;20056;-81
2022/08/25 02:03:50;;;;;;;0.00;0.00;;;19.20;99.90;;;;;;5037594;28;20079;-81
2022/08/25 02:06:25;;;;;;;1.02;0.40;;;19.20;99.90;;;;;;5037218;28;20128;-81
2022/08/25 02:08:53;;;;;;;0.00;0.00;;;19.20;99.90;;;;;;5020911;28;20061;-81
2022/08/25 02:11:20;;;;;;;0.10;0.10;;;19.10;99.90;;;;;;5037234;28;20056;-81
2022/08/25 02:13:46;;;;;;;0.05;0.00;;;19.10;99.90;;;;;;5037226;28;20048;-81
2022/08/25 02:16:19;;;;;;;0.00;0.00;;;19.10;99.90;;;;;;5037299;28;20049;-81
2022/08/25 02:18:46;;;;;;;0.10;0.00;;;19.10;99.90;;;;;;5037370;28;20045;-80
2022/08/25 02:21:13;;;;;;;0.00;0.00;;;19.10;99.90;;;;;;5073242;28;20070;-81
2022/08/25 02:23:41;;;;;;;0.00;0.00;;;19.00;99.90;;;;;;5114851;28;20048;-81
2022/08/25 02:26:07;;;;;;;0.00;0.00;;;19.10;99.90;;;;;;5098045;28;20189;-80
2022/08/25 02:28:33;;;;;;;0.00;0.00;;;19.00;99.90;;;;;;5114835;28;20518;-81
2022/08/25 02:30:59;;;;;;;0.00;0.00;;;19.00;99.90;;;;;;5114669;28;20043;-81
2022/08/25 02:33:25;;;;;;;0.00;0.00;;;19.00;99.90;;;;;;5115344;28;20126;-81
2022/08/25 02:35:51;;;;;;;0.00;0.00;;;19.00;99.90;;;;;;5114935;28;20134;-81
2022/08/25 02:38:17;;;;;;;0.00;0.00;;;18.90;99.90;;;;;;5097525;28;20495;-81
2022/08/25 02:40:43;;;;;;;0.20;0.00;;;19.00;99.90;;;;;;5096982;28;20139;-81
2022/08/25 02:43:08;;;;;;;0.00;0.00;;;18.90;99.90;;;;;;5098179;28;20468;-81
2022/08/25 02:45:35;;;;;;;0.10;0.10;;;18.90;99.90;;;;;;5097469;28;20078;-81
2022/08/25 02:48:01;;;;;;;0.00;0.00;;;18.80;99.90;;;;;;5114637;28;20051;-81
2022/08/25 02:50:28;;;;;;;0.00;0.00;;;18.80;99.90;;;;;;5097485;28;20047;-80
2022/08/25 02:52:53;;;;;;;0.00;0.00;;;18.80;99.90;;;;;;5097401;28;20062;-80
2022/08/25 02:55:20;;;;;;;0.30;0.20;;;18.80;99.90;;;;;;5114283;28;20036;-80
2022/08/25 02:57:47;;;;;;;0.00;0.00;;;18.80;99.90;;;;;;5114260;28;20083;-80
2022/08/25 03:00:14;;;;;;;0.00;0.00;;;18.80;99.90;;;;;;5114255;28;20079;-80
2022/08/25 03:02:41;;;;;;;0.00;0.00;;;18.80;99.90;;;;;;5114340;28;20490;-80
2022/08/25 03:05:08;;;;;;;0.00;0.00;;;18.80;99.90;;;;;;5097318;28;20048;-80
2022/08/25 03:07:36;;;;;;;0.00;0.00;;;18.70;99.90;;;;;;5114213;28;20479;-80
2022/08/25 03:10:08;;;;;;;0.00;0.00;;;18.70;99.90;;;;;;5113807;28;20176;-80
2022/08/25 03:12:34;;;;;;;0.00;0.00;;;18.70;99.90;;;;;;5114739;28;20086;-80
2022/08/25 03:14:59;;;;;;;0.00;0.00;;;18.70;99.90;;;;;;5096996;28;20047;-80
2022/08/25 03:17:25;;;;;;;0.08;0.08;;;18.70;99.90;;;;;;5114066;28;20032;-80
2022/08/25 03:19:51;;;;;;;0.00;0.00;;;18.70;99.90;;;;;;5113834;28;20055;-80
2022/08/25 03:22:16;;;;;;;0.00;0.00;;;18.80;99.90;;;;;;5113737;28;20047;-80
2022/08/25 03:24:42;;;;;;;0.00;0.00;;;18.70;99.90;;;;;;5097078;28;20047;-80
2022/08/25 03:27:07;;;;;;;0.00;0.00;;;18.70;99.90;;;;;;5114133;28;20039;-80
2022/08/25 03:29:33;;;;;;;0.00;0.00;;;18.70;99.90;;;;;;5114311;28;20433;-80
2022/08/25 03:31:59;;;;;;;0.00;0.00;;;18.70;99.90;;;;;;5097016;28;20051;-80
2022/08/25 03:34:28;;;;;;;0.00;0.00;;;18.70;99.90;;;;;;5113838;28;20048;-80
2022/08/25 03:36:55;;;;;;;0.00;0.00;;;18.60;99.90;;;;;;5096506;28;20065;-80
2022/08/25 03:39:23;;;;;;;0.00;0.00;;;18.60;99.90;;;;;;5113916;28;20047;-80
2022/08/25 03:41:50;;;;;;;0.00;0.00;;;18.60;99.90;;;;;;5113120;28;20077;-80
2022/08/25 03:44:17;;;;;;;0.00;0.00;;;18.60;99.90;;;;;;5113610;28;20060;-79
2022/08/25 03:46:46;;;;;;;0.00;0.00;;;18.50;99.90;;;;;;5096412;28;20046;-79
2022/08/25 03:49:15;;;;;;;0.35;0.30;;;18.50;99.90;;;;;;5096452;28;20047;-79
2022/08/25 03:51:45;;;;;;;0.00;0.00;;;18.50;99.90;;;;;;5112956;28;20053;-79
2022/08/25 03:54:12;;;;;;;0.00;0.00;;;18.50;99.90;;;;;;5113558;28;20134;-80
2022/08/25 03:56:37;;;;;;;0.00;0.00;;;18.50;99.90;;;;;;5096229;28;20392;-80
2022/08/25 03:59:04;;;;;;;0.00;0.00;;;18.50;99.90;;;;;;5113073;28;20100;-79
2022/08/25 04:01:30;;;;;;;0.00;0.00;;;18.50;99.90;;;;;;5113527;28;20128;-79
2022/08/25 04:03:56;;;;;;;0.00;0.00;;;18.50;99.90;;;;;;5113200;28;20081;-79
2022/08/25 04:06:22;;;;;;;1.58;0.35;;;18.50;99.90;;;;;;5113519;28;20035;-79
2022/08/25 04:08:48;;;;;;;0.00;0.00;;;18.50;99.90;;;;;;5113358;28;20043;-79
2022/08/25 04:11:16;;;;;;;0.10;0.10;;;18.40;99.90;;;;;;5113796;28;20051;-79
2022/08/25 04:13:44;;;;;;;0.20;0.05;;;18.40;99.90;;;;;;5096406;28;20058;-79
2022/08/25 04:16:31;;;;;;;0.00;0.00;;;18.40;99.90;;;;;;5096714;28;20086;-79
2022/08/25 04:19:00;;;;;;;0.00;0.00;;;18.30;99.90;;;;;;5113121;28;20044;-79
2022/08/25 04:21:27;;;;;;;0.00;0.00;;;18.30;99.90;;;;;;5113424;28;20142;-79
2022/08/25 04:23:55;;;;;;;0.00;0.00;;;18.30;99.90;;;;;;5095770;28;20089;-79
2022/08/25 04:26:24;;;;;;;0.00;0.00;;;18.30;99.90;;;;;;5095485;28;20503;-80
2022/08/25 04:28:50;;;;;;;0.00;0.00;;;18.30;99.90;;;;;;5113163;28;20036;-80
2022/08/25 04:31:17;;;;;;;0.00;0.00;;;18.20;99.90;;;;;;5112882;28;20479;-80
2022/08/25 04:33:46;;;;;;;0.00;0.00;;;18.20;99.90;;;;;;5113534;28;20044;-80
2022/08/25 04:36:13;;;;;;;0.00;0.00;;;18.20;99.90;;;;;;5113275;28;20112;-80
2022/08/25 04:38:41;;;;;;;0.00;0.00;;;18.20;99.90;;;;;;5113183;28;20048;-80
2022/08/25 04:41:09;;;;;;;0.00;0.00;;;18.10;99.90;;;;;;5096223;28;20600;-80
2022/08/25 04:43:35;;;;;;;0.00;0.00;;;18.20;99.90;;;;;;5095737;28;20088;-80
2022/08/25 04:46:07;;;;;;;0.00;0.00;;;18.20;99.90;;;;;;5113341;28;20044;-80
2022/08/25 04:48:33;;;;;;;0.00;0.00;;;18.20;99.90;;;;;;5096131;28;20051;-80
2022/08/25 04:51:08;;;;;;;0.00;0.00;;;18.20;99.90;;;;;;5096328;28;20371;-82
2022/08/25 04:53:35;;;;;;;0.03;0.00;;;18.20;99.90;;;;;;5096330;28;20058;-82
2022/08/25 04:56:01;;;;;;;0.00;0.00;;;18.20;99.90;;;;;;5112894;28;20058;-82
2022/08/25 04:58:27;;;;;;;0.00;0.00;;;18.20;99.90;;;;;;5113996;28;20095;-82
2022/08/25 05:00:52;;;;;;;0.00;0.00;;;18.20;99.90;;;;;;5112922;28;20469;-82
2022/08/25 05:03:18;;;;;;;0.00;0.00;;;18.20;99.90;;;;;;5113770;28;20047;-82
2022/08/25 05:05:44;;;;;;;0.00;0.00;;;18.20;99.90;;;;;;5116640;28;20040;-82
2022/08/25 05:08:09;;;;;;;0.00;0.00;;;18.20;99.90;;;;;;5099541;28;20047;-82
2022/08/25 05:10:39;;;;;;;0.17;0.10;;;18.30;99.90;;;;;;5117426;28;20584;-82
2022/08/25 05:13:05;;;;;;;0.30;0.00;;;18.20;99.90;;;;;;5099649;28;20387;-82
2022/08/25 05:15:49;;;;;;;0.05;0.00;;;18.30;99.90;;;;;;5116170;28;20142;-82
2022/08/25 05:18:15;;;;;;;0.03;0.00;;;18.30;99.90;;;;;;5117278;28;20054;-82
2022/08/25 05:20:41;;;;;;;0.45;0.45;;;18.30;99.90;;;;;;5116592;28;20082;-82
2022/08/25 05:23:07;;;;;;;0.00;0.00;;;18.30;99.90;;;;;;5099502;28;20082;-82
2022/08/25 05:25:35;;;;;;;0.03;0.00;;;18.40;99.90;;;;;;5098844;28;20056;-82
2022/08/25 05:28:01;;;;;;;0.25;0.00;;;18.40;99.90;;;;;;5099395;28;20055;-82
2022/08/25 05:30:27;;;;;;;0.00;0.00;;;18.40;99.90;;;;;;5116036;28;20050;-82
2022/08/25 05:32:53;;;;;;;0.10;0.00;;;18.40;99.90;;;;;;5099009;28;20050;-82
2022/08/25 05:35:21;;;;;;;0.05;0.00;;;18.40;99.90;;;;;;5116246;28;20093;-82
2022/08/25 05:37:49;;;;;;;0.00;0.00;;;18.50;99.90;;;;;;5098677;28;20048;-81
2022/08/25 05:40:14;;;;;;;0.00;0.00;;;18.50;99.90;;;;;;5098561;28;20495;-82
2022/08/25 05:42:40;;;;;;;0.08;0.08;;;18.50;99.90;;;;;;5115573;28;20040;-81
2022/08/25 05:45:07;;;;;;;0.00;0.00;;;18.60;99.90;;;;;;5098494;28;20052;-82
2022/08/25 05:47:33;;;;;;;0.05;0.05;;;18.60;99.90;;;;;;5115896;28;20039;-82
2022/08/25 05:49:59;;;;;;;0.00;0.00;;;18.60;99.90;;;;;;5115869;28;20100;-82
2022/08/25 05:52:26;;;;;;;0.00;0.00;;;18.60;99.90;;;;;;5115837;28;20126;-82
2022/08/25 05:54:53;;;;;;;0.00;0.00;;;18.70;99.90;;;;;;5116021;28;20128;-82
2022/08/25 05:57:18;;;;;;;0.00;0.00;;;18.60;99.90;;;;;;5098808;28;20160;-81
2022/08/25 05:59:44;;;;;;;0.00;0.00;;;18.70;99.90;;;;;;5115671;28;20510;-81
2022/08/25 06:04:54;;;;;;;0.00;0.00;;;18.80;99.90;;;;;;5115597;28;20054;-83
2022/08/25 06:07:20;;;;;;;0.10;0.10;;;18.80;99.90;;;;;;5098298;28;20479;-83
2022/08/25 06:09:47;;;;;;;0.50;0.32;;;18.90;99.90;;;;;;5098096;28;20104;-83
2022/08/25 06:12:13;;;;;;;0.00;0.00;;;19.00;99.90;;;;;;5097962;28;20047;-83
2022/08/25 06:14:39;;;;;;;0.60;0.22;;;19.10;99.90;;;;;;5097684;28;20138;-82
2022/08/25 06:17:05;;;;;;;0.00;0.00;;;19.30;99.90;;;;;;5098002;28;20130;-83
2022/08/25 06:19:30;;;;;;;0.00;0.00;;;19.40;99.90;;;;;;5097890;28;20079;-83
2022/08/25 06:21:57;;;;;;;0.38;0.20;;;19.50;99.90;;;;;;5115981;28;20044;-83
2022/08/25 06:24:25;;;;;;;0.00;0.00;;;19.50;99.90;;;;;;5098573;28;20047;-83
2022/08/25 06:26:51;;;;;;;0.00;0.00;;;19.50;99.90;;;;;;5097826;28;20497;-83
2022/08/25 06:29:17;;;;;;;0.00;0.00;;;19.60;99.90;;;;;;5115168;28;20040;-84
2022/08/25 06:31:43;;;;;;;0.00;0.00;;;19.70;99.90;;;;;;5097524;28;20142;-83
2022/08/25 06:34:10;;;;;;;0.00;0.00;;;19.80;99.90;;;;;;5097844;28;20048;-82
2022/08/25 06:36:35;;;;;;;0.00;0.00;;;19.80;99.90;;;;;;5115685;28;20032;-82
2022/08/25 06:39:01;;;;;;;0.10;0.10;;;19.90;99.90;;;;;;5097985;28;20047;-82
2022/08/25 06:41:27;;;;;;;0.00;0.00;;;19.90;99.90;;;;;;5115110;28;20040;-82
2022/08/25 06:43:52;;;;;;;0.00;0.00;;;20.00;99.90;;;;;;5114810;28;20043;-79
2022/08/25 06:46:21;;;;;;;0.15;0.00;;;20.00;99.90;;;;;;5114623;28;20043;-80
2022/08/25 06:48:48;;;;;;;0.00;0.00;;;20.10;99.90;;;;;;5114897;28;20043;-79
2022/08/25 06:51:17;;;;;;;0.00;0.00;;;20.20;99.90;;;;;;5114571;28;20086;-79
2022/08/25 06:53:45;;;;;;;0.00;0.00;;;20.30;99.90;;;;;;5114620;28;20043;-79
2022/08/25 06:56:11;;;;;;;0.00;0.00;;;20.60;99.90;;;;;;5114525;28;20104;-78
2022/08/25 06:58:37;;;;;;;0.00;0.00;;;21.30;99.90;;;;;;5097207;28;20104;-79
2022/08/25 07:01:15;;;;;;;0.00;0.00;;;22.30;99.90;;;;;;5114221;28;20036;-79
2022/08/25 07:03:41;;;;;;;0.00;0.00;;;23.40;99.90;;;;;;5097539;28;20073;-80
2022/08/25 07:06:07;;;;;;;0.10;0.10;;;24.50;99.90;;;;;;5097082;28;20518;-80
2022/08/25 07:08:34;;;;;;;0.00;0.00;;;25.30;99.90;;;;;;5097024;28;20061;-80
2022/08/25 07:11:10;;;;;;;0.00;0.00;;;25.70;98.00;;;;;;5096946;28;20104;-79
2022/08/25 07:13:37;;;;;;;0.00;0.00;;;26.30;97.30;;;;;;5096808;28;20055;-80
2022/08/25 07:16:04;;;;;;;0.00;0.00;;;26.40;94.50;;;;;;5114106;28;20039;-81
2022/08/25 07:18:30;;;;;;;0.00;0.00;;;26.50;94.10;;;;;;5096280;28;20106;-80
2022/08/25 07:20:57;;;;;;;0.10;0.10;;;26.30;92.90;;;;;;5113461;28;20056;-80
2022/08/25 07:23:23;;;;;;;0.05;0.00;;;26.00;93.40;;;;;;5113957;28;20103;-80
2022/08/25 07:25:50;;;;;;;0.03;0.00;;;25.80;95.00;;;;;;5095609;28;20054;-79
2022/08/25 07:28:16;;;;;;;0.10;0.00;;;25.80;93.70;;;;;;5114014;28;20051;-80
2022/08/25 07:30:43;;;;;;;0.25;0.10;;;26.10;94.10;;;;;;5096941;28;20399;-80
2022/08/25 07:33:09;;;;;;;0.00;0.00;;;26.40;93.10;;;;;;5114313;28;20047;-80
2022/08/25 07:35:35;;;;;;;0.00;0.00;;;26.70;94.10;;;;;;5096594;28;20048;-80
2022/08/25 07:38:02;;;;;;;0.00;0.00;;;27.10;92.90;;;;;;5096322;28;20106;-80
2022/08/25 07:40:33;;;;;;;0.00;0.00;;;27.40;92.10;;;;;;5112930;28;20047;-80
2022/08/25 07:43:01;;;;;;;0.10;0.00;;;27.60;93.20;;;;;;5113926;28;20105;-80
2022/08/25 07:45:32;;;;;;;0.00;0.00;;;27.50;92.80;;;;;;5096415;28;20180;-80
2022/08/25 07:48:09;;;;;;;0.00;0.00;;;27.20;92.20;;;;;;5096933;28;20048;-81
2022/08/25 07:50:40;;;;;;;0.03;0.00;;;27.00;92.40;;;;;;5096759;28;20089;-81
2022/08/25 07:53:07;;;;;;;0.03;0.00;;;26.80;92.40;;;;;;5096307;28;20491;-80
2022/08/25 07:55:35;;;;;;;0.00;0.00;;;26.50;93.10;;;;;;5096724;28;20039;-80
2022/08/25 07:58:02;;;;;;;0.03;0.03;;;26.10;93.00;;;;;;5096313;28;20521;-80
2022/08/25 08:00:30;;;;;;;0.00;0.00;;;25.80;93.70;;;;;;5113284;28;20130;-80
2022/08/25 08:02:57;;;;;;;0.57;0.00;;;25.60;93.60;;;;;;5113799;28;20051;-80
2022/08/25 08:05:24;;;;;;;0.00;0.00;;;25.40;95.10;;;;;;5113078;28;20491;-79
2022/08/25 08:07:51;;;;;;;0.00;0.00;;;25.30;94.20;;;;;;5096247;28;20065;-80
2022/08/25 08:10:17;;;;;;;0.00;0.00;;;25.30;95.00;;;;;;5096607;28;20051;-80
2022/08/25 08:12:43;;;;;;;0.00;0.00;;;25.20;95.60;;;;;;5113720;28;20093;-80
2022/08/25 08:15:09;;;;;;;0.00;0.00;;;25.20;97.20;;;;;;5096859;28;20560;-80
2022/08/25 08:17:35;;;;;;;0.10;0.00;;;25.10;95.90;;;;;;5096262;28;20059;-80
2022/08/25 08:20:03;;;;;;;0.00;0.00;;;25.10;96.60;;;;;;5113472;28;20043;-79
2022/08/25 08:22:29;;;;;;;0.08;0.00;;;25.10;95.90;;;;;;5096420;28;20094;-79
2022/08/25 08:24:54;;;;;;;0.00;0.00;;;25.10;96.50;;;;;;5114019;28;20479;-80
2022/08/25 08:27:20;;;;;;;0.00;0.00;;;25.10;96.90;;;;;;5113690;28;20058;-80
2022/08/25 08:29:46;;;;;;;0.10;0.10;;;25.00;96.90;;;;;;5096414;28;20101;-80
2022/08/25 08:32:12;;;;;;;0.00;0.00;;;25.10;96.80;;;;;;5095961;28;20142;-80
2022/08/25 08:34:41;;;;;;;0.00;0.00;;;25.10;96.70;;;;;;5096354;28;20043;-80
2022/08/25 08:37:08;;;;;;;0.00;0.00;;;25.10;96.90;;;;;;5113743;28;20051;-80
2022/08/25 08:39:36;;;;;;;0.10;0.10;;;25.20;98.10;;;;;;5117492;28;20050;-80
2022/08/25 08:42:23;;;;;;;0.00;0.00;;;25.20;97.10;;;;;;5117358;28;20056;-80
2022/08/25 08:45:25;;;;;;;0.08;0.08;;;25.30;96.70;;;;;;5100611;28;20054;-80
2022/08/25 08:48:14;;;;;;;0.00;0.00;;;25.40;96.20;;;;;;5118016;28;20047;-80
2022/08/25 08:51:04;;;;;;;0.00;0.00;;;25.50;96.50;;;;;;5117335;28;20040;-80
2022/08/25 08:53:54;;;;;;;0.00;0.00;;;25.70;96.10;;;;;;5100115;28;20096;-80
2022/08/25 08:56:39;;;;;;;0.00;0.00;;;25.80;95.80;;;;;;5099201;28;20067;-80
2022/08/25 08:59:08;;;;;;;;;;;26.00;96.20;;;;;;5117410;28;20048;-80
2022/08/25 09:01:58;;;;;;;0.00;0.00;;;26.10;95.30;;;;;;5117179;28;19924;-80
2022/08/25 09:04:35;;;;;;;0.00;0.00;;;26.20;95.50;;;;;;5100797;28;20048;-79
2022/08/25 09:07:06;;;;;;;0.22;0.15;;;26.40;96.00;;;;;;5099851;28;20507;-79
2022/08/25 09:09:34;;;;;;;0.00;0.00;;;26.60;95.40;;;;;;5117315;28;20429;-80
2022/08/25 09:12:08;;;;;;;0.05;0.05;;;26.70;96.20;;;;;;5099843;28;20095;-79
2022/08/25 09:14:52;;;;;;;0.00;0.00;;;26.90;94.70;;;;;;5117670;28;20437;-80
2022/08/25 09:17:26;;;;;;;0.00;0.00;;;27.00;95.80;;;;;;5117455;28;20046;-80
2022/08/25 09:20:37;;;;;;;0.00;0.00;;;27.10;95.00;;;;;;5117113;28;20056;-80
2022/08/25 09:23:17;;;;;;;0.00;0.00;;;27.20;94.20;;;;;;5018943;28;20060;-79
2022/08/25 09:25:54;;;;;;;0.10;0.10;;;27.40;93.40;;;;;;5002046;28;20604;-80
2022/08/25 09:28:35;;;;;;;0.30;0.30;;;27.50;93.40;;;;;;5002230;28;20049;-80
2022/08/25 09:31:21;;;;;;;0.10;0.10;;;27.70;91.10;;;;;;5001660;28;20437;-81
2022/08/25 09:33:46;;;;;;;0.00;0.00;;;27.80;93.40;;;;;;5017879;28;20062;-79
2022/08/25 09:36:13;;;;;;;0.00;0.00;;;27.90;90.10;;;;;;5018119;28;20096;-80
2022/08/25 09:38:39;;;;;;;0.00;0.00;;;28.00;90.30;;;;;;5002137;28;20076;-80
2022/08/25 09:41:05;;;;;;;0.10;0.10;;;28.10;90.10;;;;;;5000925;28;20116;-82
2022/08/25 09:43:35;;;;;;;0.00;0.00;;;28.20;89.00;;;;;;4994630;28;20057;-81
2022/08/25 09:46:04;;;;;;;0.00;0.00;;;28.30;86.10;;;;;;5016441;28;20096;-80
2022/08/25 09:48:36;;;;;;;0.00;0.00;;;28.40;85.50;;;;;;5008675;28;20074;-81
2022/08/25 09:51:11;;;;;;;0.10;0.10;;;28.50;84.40;;;;;;4978693;28;20457;-82
2022/08/25 09:54:01;;;;;;;0.00;0.00;;;28.70;84.20;;;;;;4979245;28;20057;-81
2022/08/25 09:56:30;;;;;;;0.00;0.00;;;28.80;82.70;;;;;;4996284;28;20149;-82
2022/08/25 09:59:22;;;;;;;0.70;0.43;;;28.80;80.40;;;;;;5012973;28;20049;-82
2022/08/25 10:01:52;;;;;;;0.10;0.00;;;28.90;82.00;;;;;;5096292;28;20035;-81
2022/08/25 10:04:30;;;;;;;0.00;0.00;;;29.00;78.70;;;;;;5096956;28;20047;-81
2022/08/25 10:06:58;;;;;;;0.17;0.08;;;29.10;81.40;;;;;;5097125;28;20122;-81
2022/08/25 10:09:33;;;;;;;0.10;0.10;;;29.20;77.40;;;;;;5095699;28;20391;-81
2022/08/25 10:12:03;;;;;;;0.00;0.00;;;29.30;76.60;;;;;;5086091;28;20051;-81
2022/08/25 10:14:40;;;;;;;0.00;0.00;;;29.40;81.70;;;;;;5095716;28;20119;-81
2022/08/25 10:17:27;;;;;;;0.00;0.00;;;29.60;77.60;;;;;;5076357;28;20071;-81
2022/08/25 10:20:08;;;;;;;0.52;0.05;;;29.70;76.60;;;;;;5093738;28;20055;-80
2022/08/25 10:22:34;;;;;;;0.35;0.10;;;29.70;75.30;;;;;;5091571;28;20083;-81
2022/08/25 10:25:00;;;;;;;0.15;0.15;;;29.80;72.60;;;;;;5109572;28;20116;-81
2022/08/25 10:27:51;;;;;;;0.03;0.00;;;29.90;74.70;;;;;;5076809;28;20040;-81
2022/08/25 10:30:50;;;;;;;0.00;0.00;;;30.00;73.50;;;;;;5076706;28;20134;-81
2022/08/25 10:33:46;;;;;;;0.95;0.22;;;30.10;73.80;;;;;;5066397;28;20067;-81
2022/08/25 10:36:22;;;;;;;0.05;0.00;;;30.30;73.10;;;;;;5077287;28;20109;-80
2022/08/25 10:38:59;;;;;;;0.63;0.25;;;30.40;71.20;;;;;;5075364;28;20055;-81
2022/08/25 10:41:31;;;;;;;0.00;0.00;;;30.40;71.20;;;;;;5078012;28;20073;-80
2022/08/25 10:47:37;;;;;;;0.00;0.00;;;30.60;68.80;;;;;;5094246;28;20055;-81
2022/08/25 10:50:28;;;;;;;0.00;0.00;;;30.80;71.50;;;;;;5093846;28;20047;-80
2022/08/25 10:53:01;;;;;;;0.00;0.00;;;30.90;70.60;;;;;;5094011;28;20055;-81
2022/08/25 10:55:42;;;;;;;0.00;0.00;;;30.90;68.80;;;;;;5076795;28;20056;-81
2022/08/25 10:58:28;;;;;;;0.00;0.00;;;31.00;69.50;;;;;;5093477;28;20141;-80
2022/08/25 11:01:32;;;;;;;0.10;0.10;;;31.10;71.30;;;;;;5094370;28;20403;-81
2022/08/25 11:04:25;;;;;;;0.00;0.00;;;31.20;68.90;;;;;;5076954;28;20052;-81
2022/08/25 11:07:09;;;;;;;0.00;0.00;;;31.40;67.80;;;;;;5012580;28;20312;-81
2022/08/25 11:09:42;;;;;;;0.20;0.20;;;31.40;66.00;;;;;;4996788;28;20418;-81
2022/08/25 11:12:33;;;;;;;0.10;0.10;;;31.40;64.10;;;;;;5013051;28;20081;-81
2022/08/25 11:15:08;;;;;;;0.00;0.00;;;31.40;67.10;;;;;;4957404;28;20137;-81
2022/08/25 11:18:00;;;;;;;0.00;0.00;;;31.60;67.00;;;;;;4957605;28;20051;-81
2022/08/25 11:20:55;;;;;;;0.00;0.00;;;31.80;69.80;;;;;;4972728;28;20055;-82
2022/08/25 11:23:30;;;;;;;0.00;0.00;;;31.80;64.30;;;;;;4903574;29;20063;-81
2022/08/25 11:26:09;;;;;;;0.10;0.00;;;31.80;60.90;;;;;;4903550;29;20115;-80
2022/08/25 11:28:42;;;;;;;0.00;0.00;;;31.80;60.70;;;;;;4918781;29;20059;-81
2022/08/25 11:31:09;;;;;;;0.00;0.00;;;31.80;60.60;;;;;;4893103;29;20405;-81
2022/08/25 11:33:35;;;;;;;0.00;0.00;;;31.90;61.50;;;;;;4884311;29;20528;-81
2022/08/25 11:36:34;;;;;;;0.00;0.00;;;31.80;58.20;;;;;;4884172;29;20067;-81
2022/08/25 11:39:41;;;;;;;0.00;0.00;;;31.90;61.40;;;;;;4881416;29;20516;-80
2022/08/25 11:42:22;;;;;;;0.10;0.10;;;31.80;59.30;;;;;;4880931;29;20534;-81
2022/08/25 11:45:12;;;;;;;0.50;0.00;;;31.90;59.60;;;;;;4913047;29;20520;-82
2022/08/25 11:48:08;;;;;;;0.00;0.00;;;32.00;59.40;;;;;;4902812;29;20078;-81
2022/08/25 11:50:53;;;;;;;0.00;0.00;;;32.10;59.10;;;;;;4914993;29;20067;-82
2022/08/25 11:53:27;;;;;;;0.20;0.20;;;32.00;59.10;;;;;;4938124;29;20058;-81
2022/08/25 11:55:57;;;;;;;0.20;0.00;;;32.00;60.20;;;;;;4938286;29;20150;-82
2022/08/25 11:58:29;;;;;;;0.10;0.10;;;32.00;57.90;;;;;;4938271;29;20059;-81
2022/08/25 12:00:57;;;;;;;0.10;0.00;;;32.20;59.40;;;;;;4967395;28;20062;-83
2022/08/25 12:03:32;;;;;;;0.00;0.00;;;32.30;59.60;;;;;;4979682;28;20116;-82
2022/08/25 12:06:30;;;;;;;0.05;0.05;;;32.40;59.10;;;;;;4979924;28;20501;-82
2022/08/25 12:09:12;;;;;;;0.38;0.03;;;32.50;59.40;;;;;;4980793;28;20057;-81
2022/08/25 12:11:38;;;;;;;0.00;0.00;;;32.40;57.80;;;;;;5013419;28;20054;-81
2022/08/25 12:14:12;;;;;;;0.00;0.00;;;32.50;57.30;;;;;;5042599;28;20066;-81
2022/08/25 12:16:42;;;;;;;0.20;0.00;;;32.50;58.30;;;;;;5099916;28;20377;-80
2022/08/25 12:19:37;;;;;;;0.15;0.05;;;32.50;55.70;;;;;;5082924;28;20056;-80
2022/08/25 12:22:03;;;;;;;0.00;0.00;;;32.50;57.90;;;;;;5002587;28;20123;-80
2022/08/25 12:24:43;;;;;;;0.10;0.08;;;32.60;57.60;;;;;;4986405;28;20088;-80
2022/08/25 12:27:47;;;;;;;0.00;0.00;;;32.60;56.80;;;;;;4986288;28;20084;-80
2022/08/25 12:30:37;;;;;;;0.00;0.00;;;32.70;56.40;;;;;;4963762;28;20051;-79
2022/08/25 12:33:12;;;;;;;0.00;0.00;;;32.80;56.80;;;;;;4963593;28;20094;-80
2022/08/25 12:36:03;;;;;;;0.00;0.00;;;32.90;57.50;;;;;;4963904;28;20101;-80
2022/08/25 12:38:29;;;;;;;0.10;0.10;;;32.90;55.70;;;;;;4963999;28;20423;-80
2022/08/25 12:41:07;;;;;;;0.00;0.00;;;32.90;56.30;;;;;;4963993;28;20051;-80
2022/08/25 12:43:36;;;;;;;0.57;0.20;;;33.00;56.40;;;;;;4963691;28;20130;-80
2022/08/25 12:46:32;;;;;;;0.00;0.00;;;33.10;53.30;;;;;;4947857;28;20069;-80
2022/08/25 12:49:03;;;;;;;3.05;0.63;;;33.00;53.60;;;;;;4903001;29;20061;-80
2022/08/25 12:51:34;;;;;;;0.00;0.00;;;32.90;52.00;;;;;;4887086;29;20181;-80
2022/08/25 12:54:18;;;;;;;0.00;0.00;;;32.90;52.80;;;;;;4887431;29;20091;-81
2022/08/25 12:56:50;;;;;;;0.57;0.05;;;32.90;53.60;;;;;;4886576;29;20088;-82
2022/08/25 12:59:32;;;;;;;0.10;0.10;;;33.00;55.20;;;;;;4918409;29;20459;-82
2022/08/25 13:02:21;;;;;;;0.10;0.10;;;33.10;54.00;;;;;;4961544;28;20054;-82
2022/08/25 13:05:03;;;;;;;0.00;0.00;;;33.10;53.40;;;;;;4999362;28;20086;-82
2022/08/25 13:08:01;;;;;;;2.10;0.00;;;33.10;53.50;;;;;;4967517;28;20042;-81
2022/08/25 13:10:31;;;;;;;0.00;0.00;;;33.20;52.70;;;;;;4999291;28;20489;-82
2022/08/25 13:13:12;;;;;;;0.05;0.05;;;33.20;54.30;;;;;;4982963;28;20161;-81
2022/08/25 13:15:41;;;;;;;0.00;0.00;;;33.20;52.70;;;;;;4999053;28;20066;-81
2022/08/25 13:18:40;;;;;;;0.08;0.00;;;33.20;51.90;;;;;;4998933;28;20050;-82